Time;durP1;ratioP1;P1;durP2;ratioP2;P2;SDS_P1;SDS_P2;PMS_P1;PMS_P2;Temp;Humidity;BMP_temperature;BMP_pressure;BME280_temperature;BME280_humidity;BME280_pressure;Samples;Min_cycle;Max_cycle;Signal;HPM_P1;HPM_P2
2023/10/06 00:01:27;;;;;;;11.43;5.22;;;;;;;12.22;100.00;102554.38;5251296;28;20436;-71
2023/10/06 00:03:59;;;;;;;18.02;5.13;;;;;;;12.19;100.00;102548.25;5252998;28;20028;-71
2023/10/06 00:06:30;;;;;;;14.20;5.53;;;;;;;12.27;100.00;102552.13;5250757;28;20141;-71
2023/10/06 00:09:05;;;;;;;15.07;5.75;;;;;;;12.30;100.00;102555.41;5256036;28;20012;-71
2023/10/06 00:11:37;;;;;;;10.82;4.63;;;;;;;12.28;100.00;102562.75;5248861;28;20013;-71
2023/10/06 00:14:08;;;;;;;13.77;5.20;;;;;;;12.25;100.00;102554.97;5248053;28;20040;-71
2023/10/06 00:16:39;;;;;;;15.63;5.65;;;;;;;12.29;100.00;102560.91;5250729;28;20144;-71
2023/10/06 00:19:37;;;;;;;13.85;4.93;;;;;;;12.24;100.00;102560.44;5247040;28;20025;-71
2023/10/06 00:22:17;;;;;;;16.00;5.00;;;;;;;12.26;100.00;102561.19;5248098;28;20024;-71
2023/10/06 00:24:50;;;;;;;22.25;5.55;;;;;;;12.19;100.00;102568.94;5248776;28;20480;-71
2023/10/06 00:27:24;;;;;;;9.77;4.70;;;;;;;12.12;100.00;102562.38;5249157;28;20013;-71
2023/10/06 00:29:55;;;;;;;12.75;4.90;;;;;;;12.04;100.00;102564.88;5248199;28;20032;-71
2023/10/06 00:32:26;;;;;;;17.92;5.07;;;;;;;12.00;100.00;102558.94;5251076;28;20099;-71
2023/10/06 00:35:11;;;;;;;14.43;5.20;;;;;;;11.94;100.00;102564.84;5252067;28;20027;-71
2023/10/06 00:37:42;;;;;;;14.90;5.65;;;;;;;11.90;100.00;102566.13;5246157;28;20020;-71
2023/10/06 00:40:19;;;;;;;13.02;5.65;;;;;;;11.90;100.00;102568.81;5248530;28;20049;-71
2023/10/06 00:42:53;;;;;;;8.90;4.55;;;;;;;11.85;100.00;102565.66;5252853;28;20024;-71
2023/10/06 00:45:26;;;;;;;7.95;4.22;;;;;;;11.81;100.00;102566.88;5250450;28;20099;-71
2023/10/06 00:47:56;;;;;;;11.30;4.82;;;;;;;11.77;100.00;102563.59;5250117;28;20473;-70
2023/10/06 00:50:32;;;;;;;10.73;4.80;;;;;;;11.74;100.00;102553.09;5252025;28;20028;-71
2023/10/06 00:53:04;;;;;;;11.73;4.65;;;;;;;11.73;100.00;102542.47;5252641;28;20416;-70
2023/10/06 00:55:35;;;;;;;12.65;4.82;;;;;;;11.71;100.00;102539.06;5247607;28;20021;-71
2023/10/06 00:58:10;;;;;;;14.30;4.95;;;;;;;11.67;100.00;102539.34;5253832;28;20031;-71
2023/10/06 01:00:41;;;;;;;11.63;5.00;;;;;;;11.69;100.00;102541.88;5254108;28;20394;-71
2023/10/06 01:03:14;;;;;;;11.27;4.80;;;;;;;11.68;100.00;102540.19;5250204;28;20024;-70
2023/10/06 01:05:45;;;;;;;22.15;6.40;;;;;;;11.69;100.00;102541.88;5253126;28;20058;-70
2023/10/06 01:08:16;;;;;;;15.65;5.78;;;;;;;11.70;100.00;102540.91;5250699;28;20080;-70
2023/10/06 01:10:51;;;;;;;23.25;6.35;;;;;;;11.73;100.00;102540.63;5250170;28;20032;-71
2023/10/06 01:13:22;;;;;;;15.27;5.30;;;;;;;11.75;100.00;102540.53;5248169;28;20016;-71
2023/10/06 01:15:56;;;;;;;14.65;6.00;;;;;;;11.68;100.00;102538.34;5246626;28;20031;-71
2023/10/06 01:18:33;;;;;;;13.45;4.90;;;;;;;11.62;100.00;102533.50;5250108;28;20020;-71
2023/10/06 01:21:17;;;;;;;15.30;5.10;;;;;;;11.57;100.00;102535.72;5253263;28;20015;-72
2023/10/06 01:23:48;;;;;;;12.65;5.50;;;;;;;11.57;100.00;102530.34;5249158;28;20055;-71
2023/10/06 01:26:18;;;;;;;13.65;5.40;;;;;;;11.54;100.00;102511.78;5247995;28;20547;-72
2023/10/06 01:28:49;;;;;;;16.90;5.78;;;;;;;11.50;100.00;102510.38;5251796;28;20027;-72
2023/10/06 01:31:37;;;;;;;9.57;5.00;;;;;;;11.48;100.00;102504.25;5248806;28;20016;-72
2023/10/06 01:34:08;;;;;;;10.93;5.32;;;;;;;11.49;100.00;102500.59;5247929;28;20028;-72
2023/10/06 01:36:38;;;;;;;19.48;6.20;;;;;;;11.52;100.00;102511.09;5252312;28;20062;-72
2023/10/06 01:39:16;;;;;;;16.70;5.75;;;;;;;11.56;100.00;102512.53;5246789;28;20020;-72
2023/10/06 01:41:47;;;;;;;17.63;5.85;;;;;;;11.59;100.00;102517.63;5248275;28;20039;-72
2023/10/06 01:44:18;;;;;;;13.38;5.32;;;;;;;11.59;100.00;102509.56;5249265;28;20021;-71
2023/10/06 01:46:53;;;;;;;18.30;6.68;;;;;;;11.55;100.00;102510.84;5243283;28;20024;-71
2023/10/06 01:49:25;;;;;;;12.95;5.43;;;;;;;11.50;100.00;102504.16;5249501;28;20017;-70
2023/10/06 01:51:56;;;;;;;13.73;5.60;;;;;;;11.47;100.00;102499.88;5251332;28;20028;-71
2023/10/06 01:54:34;;;;;;;17.00;6.38;;;;;;;11.50;100.00;102507.69;5249130;28;20017;-72
2023/10/06 01:57:11;;;;;;;11.98;5.53;;;;;;;11.53;100.00;102506.56;5249802;28;20404;-71
2023/10/06 01:59:44;;;;;;;14.43;5.93;;;;;;;11.55;100.00;102509.97;5246846;28;20386;-72
2023/10/06 02:02:14;;;;;;;21.05;5.93;;;;;;;11.57;100.00;102503.47;5245849;28;20043;-72
2023/10/06 02:04:46;;;;;;;14.30;5.68;;;;;;;11.58;100.00;102505.16;5252853;28;20111;-72
2023/10/06 02:07:18;;;;;;;11.82;5.78;;;;;;;11.60;100.00;102505.91;5247220;28;20589;-72
2023/10/06 02:09:49;;;;;;;14.43;6.35;;;;;;;11.65;100.00;102510.91;5250793;28;20065;-72
2023/10/06 02:12:19;;;;;;;17.67;5.85;;;;;;;11.64;100.00;102507.31;5250399;28;20473;-72
2023/10/06 02:14:50;;;;;;;14.68;5.35;;;;;;;11.65;100.00;102513.59;5247777;28;20496;-72
2023/10/06 02:17:21;;;;;;;16.08;5.88;;;;;;;11.66;100.00;102508.06;5249382;28;20078;-72
2023/10/06 02:19:51;;;;;;;18.27;5.35;;;;;;;11.62;100.00;102495.88;5251336;28;20388;-71
2023/10/06 02:22:22;;;;;;;16.98;6.28;;;;;;;11.65;100.00;102495.59;5250346;28;20013;-72
2023/10/06 02:24:53;;;;;;;13.50;5.45;;;;;;;11.67;100.00;102485.56;5244889;28;20034;-72
2023/10/06 02:27:24;;;;;;;17.55;5.47;;;;;;;11.70;100.00;102476.41;5249081;28;20021;-72
2023/10/06 02:29:56;;;;;;;23.67;5.75;;;;;;;11.75;100.00;102479.53;5248122;28;20038;-72
2023/10/06 02:32:27;;;;;;;18.48;4.90;;;;;;;11.80;100.00;102479.97;5246783;28;20406;-72
2023/10/06 02:34:59;;;;;;;16.80;5.32;;;;;;;11.84;100.00;102484.09;5253855;28;20030;-72
2023/10/06 02:37:29;;;;;;;16.65;5.15;;;;;;;11.91;100.00;102487.13;5245361;28;20493;-72
2023/10/06 02:40:00;;;;;;;13.65;4.97;;;;;;;11.92;100.00;102484.28;5248704;28;20077;-72
2023/10/06 02:42:33;;;;;;;10.07;5.00;;;;;;;11.93;100.00;102486.00;5245744;28;20071;-72
2023/10/06 02:45:06;;;;;;;13.05;4.63;;;;;;;11.93;100.00;102494.06;5250928;28;20071;-72
2023/10/06 02:47:40;;;;;;;11.27;4.80;;;;;;;11.94;100.00;102484.16;5250125;28;20043;-72
2023/10/06 02:50:19;;;;;;;18.52;5.38;;;;;;;12.00;100.00;102483.63;5250406;28;20028;-72
2023/10/06 02:52:56;;;;;;;11.93;4.70;;;;;;;12.02;100.00;102476.28;5247988;28;20504;-71
2023/10/06 02:55:35;;;;;;;9.00;4.70;;;;;;;12.02;100.00;102483.50;5244726;28;20525;-72
2023/10/06 02:58:06;;;;;;;14.98;4.32;;;;;;;11.96;100.00;102478.66;5247881;28;20275;-72
2023/10/06 03:00:36;;;;;;;13.25;5.00;;;;;;;11.96;100.00;102481.34;5250347;28;20095;-72
2023/10/06 03:03:18;;;;;;;14.68;4.50;;;;;;;11.93;100.00;102491.38;5248524;28;20016;-72
2023/10/06 03:05:49;;;;;;;10.32;4.43;;;;;;;11.93;100.00;102495.91;5247663;28;20414;-72
2023/10/06 03:08:21;;;;;;;18.23;5.05;;;;;;;11.95;100.00;102498.44;5244368;28;20012;-72
2023/10/06 03:10:52;;;;;;;11.88;4.60;;;;;;;11.96;100.00;102495.66;5248686;28;20042;-71
2023/10/06 03:13:35;;;;;;;14.02;4.28;;;;;;;11.91;100.00;102490.66;5249226;28;20401;-72
2023/10/06 03:16:11;;;;;;;12.63;4.70;;;;;;;11.85;100.00;102495.75;5248479;28;20051;-72
2023/10/06 03:18:44;;;;;;;11.43;3.90;;;;;;;11.78;100.00;102502.59;5248613;28;20016;-72
2023/10/06 03:21:14;;;;;;;17.42;4.72;;;;;;;11.68;100.00;102481.88;5245957;28;20637;-72
2023/10/06 03:23:47;;;;;;;15.32;5.30;;;;;;;11.71;100.00;102494.22;5251246;28;20025;-72
2023/10/06 03:29:01;;;;;;;19.95;5.20;;;;;;;11.79;100.00;102509.66;5253204;28;20027;-71
2023/10/06 03:31:44;;;;;;;12.52;4.68;;;;;;;11.80;100.00;102508.72;5251385;28;20062;-70
2023/10/06 03:34:16;;;;;;;10.90;3.92;;;;;;;11.79;100.00;102506.97;5251444;28;20070;-70
2023/10/06 03:36:51;;;;;;;9.05;4.15;;;;;;;11.71;100.00;102498.75;5254801;28;20021;-70
2023/10/06 03:39:27;;;;;;;11.70;4.50;;;;;;;11.60;100.00;102502.38;5252636;28;20099;-70
2023/10/06 03:42:06;;;;;;;10.55;4.78;;;;;;;11.50;100.00;102496.94;5252658;28;20107;-70
2023/10/06 03:44:36;;;;;;;17.20;4.47;;;;;;;11.44;100.00;102494.75;5252271;28;20025;-70
2023/10/06 03:47:08;;;;;;;14.30;4.97;;;;;;;11.39;100.00;102489.78;5251910;28;20016;-70
2023/10/06 03:49:40;;;;;;;16.05;4.13;;;;;;;11.39;100.00;102492.47;5253218;28;20428;-70
2023/10/06 03:52:11;;;;;;;16.60;4.43;;;;;;;11.41;100.00;102486.97;5256627;28;20576;-70
2023/10/06 03:54:41;;;;;;;16.70;4.70;;;;;;;11.45;100.00;102490.25;5252792;28;20103;-70
2023/10/06 03:57:15;;;;;;;16.08;4.38;;;;;;;11.47;100.00;102483.75;5251102;28;20154;-70
2023/10/06 03:59:46;;;;;;;11.98;4.43;;;;;;;11.49;100.00;102472.88;5255041;28;20505;-69
2023/10/06 04:02:18;;;;;;;12.95;4.90;;;;;;;11.49;100.00;102462.97;5251347;28;20073;-70
2023/10/06 04:04:49;;;;;;;12.75;4.45;;;;;;;11.49;100.00;102456.72;5253980;28;20032;-70
2023/10/06 04:07:23;;;;;;;12.45;3.88;;;;;;;11.49;100.00;102457.59;5248310;28;20033;-70
2023/10/06 04:09:54;;;;;;;20.92;5.32;;;;;;;11.53;100.00;102459.03;5252823;28;20027;-70
2023/10/06 04:12:25;;;;;;;16.00;4.65;;;;;;;11.53;100.00;102459.03;5252449;28;20029;-70
2023/10/06 04:14:56;;;;;;;14.27;4.28;;;;;;;11.58;100.00;102454.09;5250441;28;20024;-70
2023/10/06 04:17:29;;;;;;;9.75;4.22;;;;;;;11.60;100.00;102456.69;5250914;28;20046;-69
2023/10/06 04:20:04;;;;;;;17.08;5.20;;;;;;;11.65;100.00;102460.66;5252657;28;20115;-69
2023/10/06 04:22:38;;;;;;;10.60;4.22;;;;;;;11.70;100.00;102462.06;5252174;28;20029;-70
2023/10/06 04:25:10;;;;;;;13.27;5.00;;;;;;;11.74;100.00;102460.81;5254448;28;20024;-69
2023/10/06 04:27:41;;;;;;;11.90;5.15;;;;;;;11.73;100.00;102469.88;5252061;28;20020;-70
2023/10/06 04:30:13;;;;;;;12.50;4.47;;;;;;;11.76;100.00;102465.09;5250635;28;20485;-70
2023/10/06 04:32:44;;;;;;;14.27;5.05;;;;;;;11.81;100.00;102472.75;5255096;28;20043;-69
2023/10/06 04:35:20;;;;;;;11.77;4.38;;;;;;;11.81;100.00;102472.75;5254132;28;20470;-70
2023/10/06 04:37:51;;;;;;;16.13;5.07;;;;;;;11.80;100.00;102479.13;5255344;28;20040;-70
2023/10/06 04:40:21;;;;;;;17.95;4.85;;;;;;;11.79;100.00;102469.34;5249982;28;20016;-69
2023/10/06 04:42:52;;;;;;;14.43;5.05;;;;;;;11.78;100.00;102467.63;5253380;28;20253;-70
2023/10/06 04:45:24;;;;;;;12.10;4.88;;;;;;;11.75;100.00;102467.94;5250961;28;20016;-70
2023/10/06 04:47:55;;;;;;;12.82;4.47;;;;;;;11.64;100.00;102456.25;5254291;28;20277;-71
2023/10/06 04:50:27;;;;;;;14.88;4.88;;;;;;;11.62;100.00;102460.06;5252425;28;20028;-72
2023/10/06 04:52:58;;;;;;;14.45;4.40;;;;;;;11.61;100.00;102455.69;5249715;28;20028;-72
2023/10/06 04:55:31;;;;;;;12.55;4.68;;;;;;;11.56;100.00;102447.16;5247100;28;20070;-71
2023/10/06 04:58:02;;;;;;;13.90;4.32;;;;;;;11.57;100.00;102454.25;5245278;28;20024;-71
2023/10/06 05:00:33;;;;;;;10.43;4.43;;;;;;;11.54;100.00;102454.50;5254106;28;20031;-72
2023/10/06 05:03:04;;;;;;;17.58;4.25;;;;;;;11.51;100.00;102450.25;5253885;28;20028;-71
2023/10/06 05:05:37;;;;;;;18.10;4.60;;;;;;;11.49;100.00;102452.22;5253845;28;20012;-72
2023/10/06 05:08:14;;;;;;;14.88;4.88;;;;;;;11.48;100.00;102455.03;5248458;28;20031;-72
2023/10/06 05:10:46;;;;;;;12.20;4.65;;;;;;;11.46;100.00;102451.66;5253315;28;20024;-71
2023/10/06 05:13:16;;;;;;;14.52;4.82;;;;;;;11.45;100.00;102452.63;5254928;28;20095;-72
2023/10/06 05:15:47;;;;;;;11.45;4.28;;;;;;;11.44;100.00;102453.59;5251733;28;20119;-69
2023/10/06 05:18:17;;;;;;;11.85;4.10;;;;;;;11.44;100.00;102453.59;5253804;28;20111;-70
2023/10/06 05:20:48;;;;;;;12.75;4.85;;;;;;;11.43;100.00;102451.91;5255282;28;20469;-70
2023/10/06 05:23:20;;;;;;;14.73;4.60;;;;;;;11.44;100.00;102457.13;5248007;28;20111;-69
2023/10/06 05:25:50;;;;;;;16.90;4.72;;;;;;;11.48;100.00;102458.56;5256517;28;20020;-69
2023/10/06 05:28:22;;;;;;;14.13;5.53;;;;;;;11.44;100.00;102438.31;5248491;28;20024;-70
2023/10/06 05:30:53;;;;;;;13.80;4.63;;;;;;;11.50;100.00;102442.34;5254081;28;20047;-70
2023/10/06 05:33:25;;;;;;;19.52;4.40;;;;;;;11.53;100.00;102440.22;5253487;28;20542;-69
2023/10/06 05:35:55;;;;;;;14.88;4.47;;;;;;;11.57;100.00;102440.81;5252903;28;20047;-69
2023/10/06 05:38:26;;;;;;;16.70;5.05;;;;;;;11.57;100.00;102444.34;5251562;28;20104;-69
2023/10/06 05:40:59;;;;;;;26.10;4.90;;;;;;;11.59;100.00;102444.19;5251656;28;20020;-70
2023/10/06 05:43:30;;;;;;;17.15;5.43;;;;;;;11.59;100.00;102441.50;5248847;28;20025;-70
2023/10/06 05:46:03;;;;;;;13.85;3.80;;;;;;;11.61;100.00;102444.94;5249480;28;20024;-70
2023/10/06 05:48:34;;;;;;;13.55;4.78;;;;;;;11.60;100.00;102444.09;5251909;28;20021;-69
2023/10/06 05:51:08;;;;;;;13.80;4.75;;;;;;;11.60;100.00;102446.78;5251159;28;20028;-70
2023/10/06 05:53:41;;;;;;;14.45;4.50;;;;;;;11.61;100.00;102445.78;5252854;28;20481;-70
2023/10/06 05:56:11;;;;;;;13.65;3.95;;;;;;;11.63;100.00;102442.94;5250450;28;20032;-69
2023/10/06 05:58:43;;;;;;;13.52;4.63;;;;;;;11.62;100.00;102444.78;5247494;28;20272;-69
2023/10/06 06:01:14;;;;;;;16.63;5.88;;;;;;;11.66;100.00;102443.53;5254022;28;20055;-69
2023/10/06 06:03:45;;;;;;;22.38;6.53;;;;;;;11.74;100.00;102444.69;5252292;28;20343;-70
2023/10/06 06:06:21;;;;;;;18.52;4.93;;;;;;;11.78;100.00;102446.97;5253140;28;20261;-69
2023/10/06 06:08:52;;;;;;;13.80;5.35;;;;;;;11.82;100.00;102445.75;5250406;28;20020;-69
2023/10/06 06:11:22;;;;;;;11.73;4.85;;;;;;;11.88;100.00;102444.38;5249451;28;20066;-69
2023/10/06 06:13:56;;;;;;;17.05;4.60;;;;;;;11.93;100.00;102444.81;5240800;28;20092;-69
2023/10/06 06:16:27;;;;;;;18.87;4.73;;;;;;;11.97;100.00;102457.00;5243698;28;20048;-69
2023/10/06 06:18:59;;;;;;;21.52;4.88;;;;;;;12.03;100.00;102455.59;5245665;28;20023;-69
2023/10/06 06:21:29;;;;;;;19.65;4.75;;;;;;;12.08;100.00;102453.34;5244273;28;20028;-70
2023/10/06 06:24:00;;;;;;;17.58;5.10;;;;;;;12.17;100.00;102453.38;5249538;28;20374;-70
2023/10/06 06:26:31;;;;;;;18.23;4.43;;;;;;;12.30;100.00;102449.56;5250969;28;20032;-70
2023/10/06 06:29:03;;;;;;;12.20;4.28;;;;;;;12.37;100.00;102458.81;5249811;28;20393;-69
2023/10/06 06:31:34;;;;;;;12.35;3.90;;;;;;;12.39;100.00;102468.44;5244678;28;20036;-69
2023/10/06 06:34:05;;;;;;;13.63;4.10;;;;;;;12.49;100.00;102465.75;5248084;28;20020;-70
2023/10/06 06:36:35;;;;;;;15.75;4.30;;;;;;;12.59;100.00;102469.31;5248911;28;20046;-69
2023/10/06 06:39:09;;;;;;;24.13;4.68;;;;;;;12.67;100.00;102466.78;5250816;28;20024;-70
2023/10/06 06:41:40;;;;;;;16.48;4.03;;;;;;;12.82;100.00;102461.81;5247765;28;20473;-71
2023/10/06 06:44:10;;;;;;;14.30;4.40;;;;;;;12.95;100.00;102466.91;5249406;28;20111;-71
2023/10/06 06:46:43;;;;;;;15.55;5.45;;;;;;;13.09;100.00;102469.16;5251426;28;20031;-70
2023/10/06 06:49:13;;;;;;;17.60;4.20;;;;;;;13.37;100.00;102469.31;5247747;28;20028;-72
2023/10/06 06:51:44;;;;;;;13.65;4.05;;;;;;;13.57;100.00;102476.38;5245482;28;20039;-71
2023/10/06 06:54:14;;;;;;;11.73;3.60;;;;;;;13.84;100.00;102470.16;5245608;28;20119;-71
2023/10/06 06:56:47;;;;;;;13.25;3.88;;;;;;;14.09;100.00;102467.78;5245204;28;20024;-72
2023/10/06 06:59:19;;;;;;;11.77;3.72;;;;;;;14.45;100.00;102466.00;5243695;28;20020;-71
2023/10/06 07:01:58;;;;;;;15.70;4.05;;;;;;;14.71;100.00;102469.69;5251019;28;20047;-71
2023/10/06 07:04:29;;;;;;;16.92;4.03;;;;;;;14.77;100.00;102466.38;5244671;28;20044;-71
2023/10/06 07:07:01;;;;;;;16.60;4.28;;;;;;;15.06;100.00;102457.16;5252142;28;20016;-72
2023/10/06 07:09:31;;;;;;;15.68;3.55;;;;;;;15.36;100.00;102457.69;5249326;28;20397;-71
2023/10/06 07:12:03;;;;;;;15.75;3.80;;;;;;;15.51;100.00;102454.28;5249900;28;20024;-72
2023/10/06 07:14:34;;;;;;;10.48;3.95;;;;;;;15.70;100.00;102458.63;5246651;28;20433;-72
2023/10/06 07:17:04;;;;;;;14.05;4.18;;;;;;;15.79;100.00;102463.06;5247953;28;20031;-71
2023/10/06 07:19:35;;;;;;;13.40;4.20;;;;;;;15.77;100.00;102461.56;5249332;28;20024;-72
2023/10/06 07:22:06;;;;;;;10.82;4.03;;;;;;;15.85;100.00;102471.56;5251980;28;20197;-72
2023/10/06 07:24:36;;;;;;;17.30;4.10;;;;;;;16.31;100.00;102472.91;5248535;28;20503;-72
2023/10/06 07:27:08;;;;;;;14.63;4.05;;;;;;;16.59;100.00;102484.34;5252180;28;20024;-72
2023/10/06 07:29:39;;;;;;;17.33;3.80;;;;;;;16.99;100.00;102470.03;5246639;28;20023;-70
2023/10/06 07:32:10;;;;;;;17.42;5.10;;;;;;;17.04;100.00;102474.94;5249696;28;20499;-71
2023/10/06 07:34:41;;;;;;;10.10;3.67;;;;;;;17.19;100.00;102466.97;5251131;28;20021;-72
2023/10/06 07:37:11;;;;;;;11.30;3.70;;;;;;;17.06;100.00;102470.19;5247102;28;20073;-72
2023/10/06 07:39:42;;;;;;;10.82;4.05;;;;;;;16.74;100.00;102473.75;5245906;28;20025;-71
2023/10/06 07:42:16;;;;;;;9.35;3.53;;;;;;;16.82;100.00;102471.91;5251552;28;20024;-71
2023/10/06 07:44:47;;;;;;;15.37;3.60;;;;;;;16.83;100.00;102478.16;5250099;28;20559;-71
2023/10/06 07:47:24;;;;;;;12.55;4.43;;;;;;;16.40;100.00;102488.19;5250795;28;20107;-70
2023/10/06 07:49:55;;;;;;;13.60;4.72;;;;;;;16.27;100.00;102485.13;5258348;28;20016;-70
2023/10/06 07:52:27;;;;;;;11.65;4.40;;;;;;;16.34;100.00;102478.03;5248751;28;20020;-70
2023/10/06 07:54:58;;;;;;;15.57;4.40;;;;;;;16.63;100.00;102483.00;5241345;28;20305;-70
2023/10/06 07:57:32;;;;;;;19.73;4.60;;;;;;;17.16;100.00;102483.56;5246528;28;20028;-70
2023/10/06 08:00:06;;;;;;;13.65;3.63;;;;;;;17.33;100.00;102488.00;5259572;28;20040;-70
2023/10/06 08:02:39;;;;;;;15.07;4.70;;;;;;;17.36;100.00;102484.91;5254186;28;20099;-70
2023/10/06 08:05:13;;;;;;;14.73;4.28;;;;;;;17.31;100.00;102488.13;5254754;28;20028;-70
2023/10/06 08:07:44;;;;;;;17.05;4.25;;;;;;;17.63;100.00;102482.84;5251410;28;20032;-70
2023/10/06 08:10:18;;;;;;;8.40;4.05;;;;;;;17.66;100.00;102474.34;5249633;28;20432;-70
2023/10/06 08:12:51;;;;;;;12.13;4.15;;;;;;;17.84;100.00;102488.59;5253539;28;20024;-70
2023/10/06 08:15:22;;;;;;;12.70;4.32;;;;;;;17.80;100.00;102487.25;5250927;28;20020;-70
2023/10/06 08:17:53;;;;;;;15.70;4.70;;;;;;;17.84;100.00;102491.31;5256014;28;20141;-70
2023/10/06 08:20:25;;;;;;;14.00;4.35;;;;;;;17.64;100.00;102490.81;5259567;28;20105;-70
2023/10/06 08:22:57;;;;;;;13.00;4.22;;;;;;;17.57;100.00;102508.78;5258118;28;20308;-71
2023/10/06 08:25:29;;;;;;;13.60;4.30;;;;;;;17.42;100.00;102503.25;5262856;28;20455;-70
2023/10/06 08:28:04;;;;;;;13.38;4.35;;;;;;;17.24;100.00;102502.56;5256246;28;20024;-70
2023/10/06 08:30:37;;;;;;;17.38;5.20;;;;;;;17.26;100.00;102506.78;5251657;28;20055;-70
2023/10/06 08:33:09;;;;;;;14.98;4.65;;;;;;;17.38;100.00;102507.31;5249547;28;20028;-70
2023/10/06 08:35:41;;;;;;;14.52;4.60;;;;;;;17.25;100.00;102505.09;5255297;28;20472;-70
2023/10/06 08:38:11;;;;;;;17.60;4.35;;;;;;;17.26;100.00;102512.22;5250408;28;20036;-71
2023/10/06 08:40:43;;;;;;;13.98;4.28;;;;;;;17.26;100.00;102519.50;5256112;28;20020;-70
2023/10/06 08:43:19;;;;;;;14.40;4.18;;;;;;;17.19;100.00;102515.78;5253539;28;20020;-70
2023/10/06 08:45:49;;;;;;;15.40;4.25;;;;;;;17.27;100.00;102516.66;5262287;28;20098;-70
2023/10/06 08:48:24;;;;;;;14.85;4.75;;;;;;;17.28;100.00;102509.34;5257193;28;20543;-70
2023/10/06 08:50:58;;;;;;;;;;;;;;;17.53;100.00;102507.47;5257284;28;20035;-70
2023/10/06 08:53:31;;;;;;;14.65;4.43;;;;;;;17.72;100.00;102501.66;5255058;28;19909;-70
2023/10/06 08:56:02;;;;;;;18.10;4.53;;;;;;;17.77;100.00;102501.16;5253070;28;20175;-70
2023/10/06 08:58:35;;;;;;;13.18;4.43;;;;;;;17.83;100.00;102500.47;5257646;28;20047;-70
2023/10/06 09:01:06;;;;;;;17.23;5.28;;;;;;;17.92;100.00;102501.28;5256210;28;20028;-70
2023/10/06 09:03:38;;;;;;;13.55;4.50;;;;;;;17.94;100.00;102501.97;5257469;28;20054;-70
2023/10/06 09:06:11;;;;;;;14.52;4.32;;;;;;;17.95;100.00;102495.50;5254902;28;20404;-71
2023/10/06 09:08:43;;;;;;;19.02;4.65;;;;;;;17.91;100.00;102505.03;5250448;28;20020;-71
2023/10/06 09:11:13;;;;;;;12.82;3.58;;;;;;;17.91;100.00;102502.31;5253372;28;20032;-71
2023/10/06 09:13:45;;;;;;;17.63;4.28;;;;;;;17.88;100.00;102499.97;5254591;28;20032;-70
2023/10/06 09:16:17;;;;;;;11.48;4.15;;;;;;;18.03;100.00;102496.34;5252910;28;20028;-70
2023/10/06 09:19:00;;;;;;;16.45;4.20;;;;;;;18.25;100.00;102497.44;5257068;28;20035;-70
2023/10/06 09:21:32;;;;;;;12.50;4.07;;;;;;;18.37;100.00;102497.88;5249675;28;20391;-70
2023/10/06 09:24:19;;;;;;;18.20;4.55;;;;;;;18.62;100.00;102504.88;5253354;28;20028;-70
2023/10/06 09:26:49;;;;;;;17.65;4.45;;;;;;;19.08;100.00;102504.09;5257233;28;20036;-70
2023/10/06 09:29:32;;;;;;;15.52;3.92;;;;;;;19.60;100.00;102503.28;5249478;28;20043;-71
2023/10/06 09:32:20;;;;;;;10.13;3.22;;;;;;;19.81;100.00;102497.09;5246887;28;20062;-71
2023/10/06 09:34:53;;;;;;;19.83;4.20;;;;;;;19.94;100.00;102501.91;5255083;28;20431;-71
2023/10/06 09:37:25;;;;;;;18.15;3.45;;;;;;;20.15;100.00;102499.25;5248456;28;20024;-71
2023/10/06 09:39:58;;;;;;;12.15;3.83;;;;;;;20.01;100.00;102489.22;5257817;28;20493;-71
2023/10/06 09:42:29;;;;;;;13.73;4.22;;;;;;;19.97;100.00;102496.06;5253965;28;20509;-70
2023/10/06 09:45:07;;;;;;;12.02;3.35;;;;;;;19.98;100.00;102486.84;5256622;28;20490;-71
2023/10/06 09:47:44;;;;;;;14.98;3.85;;;;;;;19.76;100.00;102485.94;5250711;28;20012;-71
2023/10/06 09:50:21;;;;;;;17.80;4.03;;;;;;;19.40;100.00;102482.00;5252951;28;20111;-72
2023/10/06 09:52:52;;;;;;;10.43;3.15;;;;;;;19.67;100.00;102477.00;5253479;28;20028;-71
2023/10/06 09:55:25;;;;;;;10.45;3.13;;;;;;;19.81;100.00;102494.38;5258049;28;20496;-71
2023/10/06 09:57:57;;;;;;;13.93;3.22;;;;;;;19.74;100.00;102483.41;5255216;28;20024;-71
2023/10/06 10:00:29;;;;;;;11.07;3.03;;;;;;;19.75;100.00;102487.81;5254590;28;20441;-71
2023/10/06 10:03:01;;;;;;;8.95;3.17;;;;;;;19.62;100.00;102483.00;5249779;28;20397;-70
2023/10/06 10:05:32;;;;;;;11.95;3.42;;;;;;;19.49;100.00;102492.81;5252742;28;20015;-70
2023/10/06 10:08:03;;;;;;;9.07;3.13;;;;;;;19.36;100.00;102482.56;5256208;28;20027;-70
2023/10/06 10:10:39;;;;;;;14.50;3.53;;;;;;;19.32;100.00;102482.06;5247342;28;20056;-71
2023/10/06 10:13:31;;;;;;;10.15;3.30;;;;;;;19.37;100.00;102484.25;5251910;28;20061;-72
2023/10/06 10:16:20;;;;;;;12.27;3.72;;;;;;;19.32;100.00;102487.53;5249217;28;20429;-71
2023/10/06 10:18:58;;;;;;;16.55;2.50;;;;;;;19.41;100.00;102488.28;5251179;28;20437;-72
2023/10/06 10:21:34;;;;;;;19.15;4.22;;;;;;;19.58;100.00;102481.69;5250250;28;20505;-71
2023/10/06 10:24:05;;;;;;;12.82;3.28;;;;;;;19.77;100.00;102474.84;5252270;28;20032;-72
2023/10/06 10:26:39;;;;;;;18.52;4.00;;;;;;;19.74;100.00;102477.97;5249768;28;20019;-71
2023/10/06 10:29:16;;;;;;;12.65;3.45;;;;;;;19.67;100.00;102472.41;5248598;28;20035;-71
2023/10/06 10:31:58;;;;;;;10.65;3.63;;;;;;;19.55;100.00;102479.31;5249534;28;20060;-71
2023/10/06 10:34:33;;;;;;;12.82;3.58;;;;;;;19.61;100.00;102473.16;5250255;28;20028;-72
2023/10/06 10:37:05;;;;;;;16.15;3.28;;;;;;;19.66;100.00;102468.00;5250214;28;20757;-70
2023/10/06 10:39:43;;;;;;;9.80;3.30;;;;;;;19.62;100.00;102466.66;5254060;28;20029;-72
2023/10/06 10:42:17;;;;;;;13.18;3.25;;;;;;;19.62;100.00;102452.22;5248618;28;20086;-72
2023/10/06 10:44:49;;;;;;;9.05;3.72;;;;;;;19.47;100.00;102454.03;5252780;28;20055;-72
2023/10/06 10:47:23;;;;;;;10.82;3.33;;;;;;;19.59;100.00;102445.28;5242679;28;20082;-72
2023/10/06 10:49:55;;;;;;;11.43;3.53;;;;;;;19.56;100.00;102453.78;5244243;28;20031;-73
2023/10/06 10:52:27;;;;;;;18.60;3.55;;;;;;;19.70;100.00;102438.50;5249155;28;20295;-72
2023/10/06 10:55:00;;;;;;;14.07;3.60;;;;;;;19.65;100.00;102457.28;5252428;28;20024;-72
2023/10/06 10:57:33;;;;;;;16.30;4.18;;;;;;;19.66;100.00;102448.09;5247488;28;20032;-73
2023/10/06 11:03:00;;;;;;;11.35;3.15;;;;;;;19.66;100.00;102438.03;5249071;28;20060;-71
2023/10/06 11:05:31;;;;;;;12.98;3.20;;;;;;;19.63;100.00;102443.88;5248285;28;20473;-73
2023/10/06 11:08:05;;;;;;;8.32;3.08;;;;;;;19.60;100.00;102443.41;5251659;28;20020;-73
2023/10/06 11:10:38;;;;;;;12.73;3.05;;;;;;;19.72;100.00;102435.59;5251861;28;20024;-72
2023/10/06 11:13:15;;;;;;;13.85;3.42;;;;;;;19.77;100.00;102436.72;5247820;28;20438;-72
2023/10/06 11:15:48;;;;;;;9.35;3.60;;;;;;;19.81;100.00;102438.03;5246863;28;20059;-72
2023/10/06 11:18:20;;;;;;;16.00;4.18;;;;;;;19.86;100.00;102443.75;5241535;28;20090;-73
2023/10/06 11:20:54;;;;;;;11.30;2.83;;;;;;;19.91;100.00;102446.75;5251832;28;20024;-72
2023/10/06 11:23:25;;;;;;;10.77;3.70;;;;;;;19.86;100.00;102446.47;5245481;28;20032;-73
2023/10/06 11:25:56;;;;;;;7.70;3.20;;;;;;;19.87;100.00;102442.72;5252820;28;21398;-72
2023/10/06 11:28:40;;;;;;;11.63;3.75;;;;;;;19.82;100.00;102437.00;5244658;28;20025;-72
2023/10/06 11:31:12;;;;;;;19.85;4.13;;;;;;;19.69;100.00;102430.53;5246013;28;20032;-73
2023/10/06 11:33:44;;;;;;;19.48;4.22;;;;;;;19.75;100.00;102427.91;5249881;28;20027;-73
2023/10/06 11:36:17;;;;;;;15.90;3.38;;;;;;;19.78;100.00;102429.38;5244455;28;20867;-73
2023/10/06 11:38:50;;;;;;;8.90;3.20;;;;;;;19.90;100.00;102436.06;5251281;28;20107;-73
2023/10/06 11:41:23;;;;;;;12.43;3.92;;;;;;;19.99;100.00;102443.09;5243172;28;20146;-73